createdAt,value
2022-10-30T00:00:22.431Z,11.89
2022-10-30T00:05:25.158Z,11.91
2022-10-30T00:10:27.849Z,11.90
2022-10-30T00:15:30.598Z,11.90
2022-10-30T00:20:35.832Z,11.92
2022-10-30T00:25:39.045Z,11.92
2022-10-30T00:30:42.610Z,11.89
2022-10-30T00:35:49.260Z,11.90
2022-10-30T00:40:52.251Z,11.90
2022-10-30T00:45:56.697Z,11.87
2022-10-30T00:51:00.501Z,11.87
2022-10-30T00:56:06.323Z,11.86
2022-10-30T01:01:13.154Z,11.84
2022-10-30T01:06:16.562Z,11.84
2022-10-30T01:11:19.302Z,11.85
2022-10-30T01:16:37.204Z,11.87
2022-10-30T01:22:06.959Z,11.87
2022-10-30T01:27:35.721Z,11.87
2022-10-30T01:32:49.536Z,11.82
2022-10-30T01:38:10.603Z,11.75
2022-10-30T01:43:13.364Z,11.74
2022-10-30T01:48:45.396Z,11.78
2022-10-30T01:54:20.647Z,11.78
2022-10-30T01:59:49.910Z,11.78
2022-10-30T02:04:52.682Z,11.77
2022-10-30T02:09:56.069Z,11.75
2022-10-30T02:15:00.845Z,11.74
2022-10-30T02:20:04.038Z,11.74
2022-10-30T02:25:07.174Z,11.74
2022-10-30T02:30:10.969Z,11.71
2022-10-30T02:35:14.326Z,11.68
2022-10-30T02:40:17.256Z,11.69
2022-10-30T02:45:20.451Z,11.69
2022-10-30T02:50:23.129Z,11.70
2022-10-30T02:55:25.998Z,11.68
2022-10-30T03:00:28.815Z,11.70
2022-10-30T03:05:31.590Z,11.69
2022-10-30T03:10:34.457Z,11.70
2022-10-30T03:15:37.160Z,11.70
2022-10-30T03:20:39.919Z,11.71
2022-10-30T03:25:42.684Z,11.71
2022-10-30T03:30:45.642Z,11.72
2022-10-30T03:35:48.344Z,11.69
2022-10-30T03:40:51.495Z,11.68
2022-10-30T03:45:55.760Z,11.68
2022-10-30T03:50:59.876Z,11.66
2022-10-30T03:56:04.502Z,11.69
2022-10-30T04:01:10.642Z,11.70
2022-10-30T04:06:13.577Z,11.71
2022-10-30T04:11:16.401Z,11.68
2022-10-30T04:16:19.220Z,11.69
2022-10-30T04:21:22.182Z,11.67
2022-10-30T04:26:24.980Z,11.68
2022-10-30T04:31:27.764Z,11.67
2022-10-30T04:36:34.051Z,11.69
2022-10-30T04:41:36.885Z,11.73
2022-10-30T04:46:39.689Z,11.74
2022-10-30T04:51:42.473Z,11.73
2022-10-30T04:56:45.212Z,11.75
2022-10-30T05:01:48.017Z,11.76
2022-10-30T05:06:50.913Z,11.72
2022-10-30T05:11:58.887Z,11.71
2022-10-30T05:17:02.765Z,11.69
2022-10-30T05:22:05.748Z,11.67
2022-10-30T05:27:08.605Z,11.63
2022-10-30T05:32:11.485Z,11.62
2022-10-30T05:37:14.085Z,11.60
2022-10-30T05:42:16.826Z,11.59
2022-10-30T05:47:19.553Z,11.58
2022-10-30T05:52:22.060Z,11.58
2022-10-30T05:57:24.819Z,11.59
2022-10-30T06:02:27.711Z,11.60
2022-10-30T06:07:30.595Z,11.65
2022-10-30T06:12:33.366Z,11.69
2022-10-30T06:17:36.174Z,11.73
2022-10-30T06:22:39.008Z,11.75
2022-10-30T06:27:41.691Z,11.80
2022-10-30T06:32:44.694Z,11.88
2022-10-30T06:37:48.911Z,11.90
2022-10-30T06:42:53.156Z,11.92
2022-10-30T06:47:56.181Z,11.90
2022-10-30T06:52:59.475Z,11.88
2022-10-30T06:58:03.547Z,11.88
2022-10-30T07:03:08.877Z,11.87
2022-10-30T07:08:11.893Z,11.85
2022-10-30T07:13:14.769Z,11.85
2022-10-30T07:18:17.479Z,11.86
2022-10-30T07:23:20.401Z,11.87
2022-10-30T07:28:23.263Z,11.90
2022-10-30T07:33:26.024Z,11.95
2022-10-30T07:38:28.716Z,11.98
2022-10-30T07:43:31.463Z,12.03
2022-10-30T07:48:34.330Z,11.97
2022-10-30T07:53:37.179Z,11.96
2022-10-30T07:58:45.090Z,11.99
2022-10-30T08:03:48.257Z,12.03
2022-10-30T08:08:51.108Z,12.04
2022-10-30T08:13:53.846Z,12.04
2022-10-30T08:18:56.730Z,12.12
2022-10-30T08:23:59.717Z,12.17
2022-10-30T08:29:02.598Z,12.18
2022-10-30T08:34:05.781Z,12.13
2022-10-30T08:39:08.999Z,12.22
2022-10-30T08:44:11.970Z,12.23
2022-10-30T08:49:14.843Z,12.30
2022-10-30T08:54:17.866Z,12.32
2022-10-30T08:59:21.521Z,12.41
2022-10-30T09:04:24.193Z,12.43
2022-10-30T09:09:27.125Z,12.46
2022-10-30T09:14:29.948Z,12.51
2022-10-30T09:19:32.754Z,12.54
2022-10-30T09:24:35.925Z,12.69
2022-10-30T09:29:38.709Z,12.74
2022-10-30T09:34:41.340Z,12.85
2022-10-30T09:39:44.074Z,12.83
2022-10-30T09:45:08.124Z,12.83
2022-10-30T09:50:35.719Z,12.86
2022-10-30T09:56:08.448Z,12.92
2022-10-30T10:01:17.303Z,12.98
2022-10-30T10:06:20.941Z,13.07
2022-10-30T10:11:31.228Z,13.19
2022-10-30T10:16:36.829Z,13.24
2022-10-30T10:21:53.289Z,13.31
2022-10-30T10:26:59.031Z,13.37
2022-10-30T10:32:06.040Z,13.47
2022-10-30T10:37:49.501Z,13.54
2022-10-30T10:43:30.490Z,13.61
2022-10-30T10:48:43.217Z,13.71
2022-10-30T10:54:02.521Z,13.78
2022-10-30T10:59:26.600Z,13.91
2022-10-30T11:04:35.088Z,14.02
2022-10-30T11:09:39.977Z,14.05
2022-10-30T11:14:42.875Z,14.10
2022-10-30T11:19:51.696Z,14.17
2022-10-30T11:24:54.873Z,14.26
2022-10-30T11:30:01.996Z,14.29
2022-10-30T11:35:12.670Z,14.36
2022-10-30T11:40:16.591Z,14.37
2022-10-30T11:45:20.484Z,14.37
2022-10-30T11:50:24.715Z,14.42
2022-10-30T11:55:32.326Z,14.45
2022-10-30T12:00:36.350Z,14.51
2022-10-30T12:05:43.693Z,14.63
2022-10-30T12:11:05.726Z,14.70
2022-10-30T12:16:18.022Z,14.78
2022-10-30T12:21:21.082Z,14.87
2022-10-30T12:26:24.846Z,15.04
2022-10-30T12:31:50.703Z,14.99
2022-10-30T12:37:25.613Z,15.01
2022-10-30T12:42:28.951Z,15.03
2022-10-30T12:47:44.518Z,15.04
2022-10-30T12:52:54.634Z,14.99
2022-10-30T12:58:26.250Z,14.88
2022-10-30T13:04:09.824Z,14.90
2022-10-30T13:09:19.550Z,14.89
2022-10-30T13:14:44.561Z,14.84
2022-10-30T13:19:47.978Z,14.90
2022-10-30T13:25:10.709Z,14.91
2022-10-30T13:30:20.381Z,14.86
2022-10-30T13:35:56.589Z,14.90
2022-10-30T13:41:02.338Z,14.94
2022-10-30T13:46:11.154Z,14.99
2022-10-30T13:51:34.333Z,15.03
2022-10-30T13:56:37.339Z,15.09
2022-10-30T14:01:51.622Z,15.18
2022-10-30T14:07:03.976Z,15.16
2022-10-30T14:12:44.275Z,15.10
2022-10-30T14:18:11.876Z,15.05
2022-10-30T14:23:35.557Z,14.83
2022-10-30T14:28:45.297Z,14.69
2022-10-30T14:33:55.630Z,14.58
2022-10-30T14:39:01.706Z,14.53
2022-10-30T14:44:07.607Z,14.48
2022-10-30T14:49:29.656Z,14.45
2022-10-30T14:54:45.136Z,14.40
2022-10-30T14:59:47.979Z,14.36
2022-10-30T15:05:08.780Z,14.30
2022-10-30T15:10:33.588Z,14.19
2022-10-30T15:15:39.111Z,14.11
2022-10-30T15:20:41.917Z,14.02
2022-10-30T15:25:47.738Z,13.92
2022-10-30T15:31:01.283Z,13.84
2022-10-30T15:36:05.046Z,13.75
2022-10-30T15:41:09.657Z,13.70
2022-10-30T15:46:14.853Z,13.61
2022-10-30T15:51:22.900Z,13.56
2022-10-30T15:57:06.762Z,13.50
2022-10-30T16:02:21.451Z,13.47
2022-10-30T16:07:29.060Z,13.41
2022-10-30T16:12:34.576Z,13.38
2022-10-30T16:17:37.374Z,13.35
2022-10-30T16:22:40.225Z,13.30
2022-10-30T16:27:44.430Z,13.28
2022-10-30T16:32:56.587Z,13.27
2022-10-30T16:38:02.651Z,13.23
2022-10-30T16:43:22.908Z,13.22
2022-10-30T16:48:28.379Z,13.22
2022-10-30T16:53:32.093Z,13.21
2022-10-30T16:58:34.885Z,13.21
2022-10-30T17:03:40.178Z,13.21
2022-10-30T17:08:43.373Z,13.20
2022-10-30T17:14:17.441Z,13.16
2022-10-30T17:19:32.452Z,13.15
2022-10-30T17:24:37.556Z,13.13
2022-10-30T17:29:40.328Z,13.11
2022-10-30T17:34:43.065Z,13.12
2022-10-30T17:39:45.767Z,13.10
2022-10-30T17:44:48.626Z,13.09
2022-10-30T17:49:51.361Z,13.11
2022-10-30T17:54:54.281Z,13.12
2022-10-30T17:59:57.113Z,13.08
2022-10-30T18:04:59.861Z,13.09
2022-10-30T18:10:02.696Z,13.06
2022-10-30T18:15:31.177Z,13.08
2022-10-30T18:20:34.153Z,13.06
2022-10-30T18:25:37.029Z,13.04
2022-10-30T18:30:39.963Z,13.07
2022-10-30T18:35:43.160Z,13.05
2022-10-30T18:40:47.951Z,13.04
2022-10-30T18:45:50.813Z,13.04
2022-10-30T18:50:53.641Z,13.01
2022-10-30T18:55:56.948Z,13.01
2022-10-30T19:01:11.458Z,13.00
2022-10-30T19:06:19.012Z,12.96
2022-10-30T19:11:24.822Z,12.92
2022-10-30T19:16:32.081Z,12.91
2022-10-30T19:21:35.609Z,12.88
2022-10-30T19:26:38.587Z,12.88
2022-10-30T19:31:41.437Z,12.89
2022-10-30T19:36:44.275Z,12.91
2022-10-30T19:41:47.104Z,12.87
2022-10-30T19:46:49.882Z,12.84
2022-10-30T19:51:52.629Z,12.83
2022-10-30T19:56:55.403Z,12.82
2022-10-30T20:01:58.316Z,12.83
2022-10-30T20:07:02.647Z,12.83
2022-10-30T20:12:06.894Z,12.84
2022-10-30T20:17:10.894Z,12.80
2022-10-30T20:22:13.599Z,12.83
2022-10-30T20:27:16.340Z,12.84
2022-10-30T20:32:19.134Z,12.83
2022-10-30T20:37:22.360Z,12.82
2022-10-30T20:42:25.405Z,12.83
2022-10-30T20:47:28.256Z,12.82
2022-10-30T20:52:30.949Z,12.80
2022-10-30T20:57:34.521Z,12.81
2022-10-30T21:02:37.422Z,12.80
2022-10-30T21:07:40.250Z,12.74
2022-10-30T21:12:43.183Z,12.72
2022-10-30T21:17:46.813Z,12.69
2022-10-30T21:22:49.598Z,12.67
2022-10-30T21:27:52.366Z,12.64
2022-10-30T21:32:55.173Z,12.59
2022-10-30T21:37:57.944Z,12.57
2022-10-30T21:43:04.137Z,12.55
2022-10-30T21:48:07.582Z,12.48
2022-10-30T21:53:10.512Z,12.48
2022-10-30T21:58:13.211Z,12.45
2022-10-30T22:03:15.918Z,12.46
2022-10-30T22:08:18.653Z,12.43
2022-10-30T22:13:21.406Z,12.44
2022-10-30T22:18:24.289Z,12.41
2022-10-30T22:23:28.423Z,12.41
2022-10-30T22:28:32.473Z,12.40
2022-10-30T22:33:36.772Z,12.37
2022-10-30T22:38:41.405Z,12.38
2022-10-30T22:43:45.484Z,12.31
2022-10-30T22:48:48.387Z,12.31
2022-10-30T22:54:00.196Z,12.29
2022-10-30T22:59:13.863Z,12.30
2022-10-30T23:04:16.735Z,12.25
2022-10-30T23:09:22.196Z,12.24
2022-10-30T23:14:25.154Z,12.24
2022-10-30T23:19:28.713Z,12.21
2022-10-30T23:24:31.559Z,12.19
2022-10-30T23:29:34.341Z,12.17
2022-10-30T23:34:37.163Z,12.16
2022-10-30T23:39:39.982Z,12.17
2022-10-30T23:44:42.821Z,12.15
2022-10-30T23:49:45.576Z,12.15
2022-10-30T23:54:48.443Z,12.11
2022-10-30T23:59:51.131Z,12.11
